createdAt,value
2023-12-11T00:00:57.259Z,27.10
2023-12-11T00:01:54.831Z,27.27
2023-12-11T00:02:52.370Z,27.64
2023-12-11T00:03:49.941Z,28.26
2023-12-11T00:04:47.305Z,28.37
2023-12-11T00:05:44.826Z,27.56
2023-12-11T00:06:42.326Z,28.33
2023-12-11T00:07:39.776Z,30.18
2023-12-11T00:08:37.238Z,28.36
2023-12-11T00:09:34.680Z,29.81
2023-12-11T00:10:32.625Z,28.50
2023-12-11T00:11:30.202Z,30.08
2023-12-11T00:12:27.944Z,29.87
2023-12-11T00:13:25.463Z,29.34
2023-12-11T00:14:22.816Z,29.67
2023-12-11T00:15:20.382Z,28.67
2023-12-11T00:16:18.344Z,29.55
2023-12-11T00:17:15.770Z,30.20
2023-12-11T00:18:13.247Z,30.50
2023-12-11T00:19:12.249Z,30.04
2023-12-11T00:20:10.168Z,31.06
2023-12-11T00:21:07.529Z,29.39
2023-12-11T00:22:05.032Z,28.08
2023-12-11T00:23:02.453Z,29.55
2023-12-11T00:23:59.875Z,29.72
2023-12-11T00:24:57.457Z,29.45
2023-12-11T00:25:54.844Z,28.47
2023-12-11T00:26:52.267Z,28.85
2023-12-11T00:27:49.794Z,28.95
2023-12-11T00:28:48.656Z,29.85
2023-12-11T00:29:46.180Z,29.47
2023-12-11T00:30:43.627Z,29.29
2023-12-11T00:31:41.278Z,28.93
2023-12-11T00:32:39.246Z,28.82
2023-12-11T00:33:37.912Z,30.61
2023-12-11T00:34:35.516Z,29.53
2023-12-11T00:35:33.002Z,29.71
2023-12-11T00:36:30.514Z,29.90
2023-12-11T00:37:28.181Z,31.42
2023-12-11T00:38:26.114Z,31.19
2023-12-11T00:39:23.686Z,29.09
2023-12-11T00:40:21.073Z,29.58
2023-12-11T00:41:18.500Z,30.34
2023-12-11T00:42:15.968Z,29.81
2023-12-11T00:43:13.534Z,30.11
2023-12-11T00:44:11.167Z,29.20
2023-12-11T00:45:08.743Z,29.80
2023-12-11T00:46:06.290Z,30.64
2023-12-11T00:47:05.356Z,28.91
2023-12-11T00:48:03.153Z,29.78
2023-12-11T00:49:00.736Z,28.94
2023-12-11T00:49:58.270Z,28.25
2023-12-11T00:50:55.722Z,29.24
2023-12-11T00:51:55.769Z,29.27
2023-12-11T00:52:53.134Z,30.31
2023-12-11T00:53:50.601Z,29.63
2023-12-11T00:54:48.021Z,29.04
2023-12-11T00:55:45.738Z,29.19
2023-12-11T00:56:43.402Z,29.95
2023-12-11T00:57:40.824Z,28.96
2023-12-11T00:58:38.262Z,29.49
2023-12-11T00:59:35.691Z,30.40
2023-12-11T01:00:33.108Z,29.56
2023-12-11T01:01:30.568Z,28.21
2023-12-11T01:02:28.066Z,30.39
2023-12-11T01:03:25.495Z,30.23
2023-12-11T01:04:23.098Z,28.98
2023-12-11T01:05:20.543Z,27.41
2023-12-11T01:06:17.988Z,29.33
2023-12-11T01:07:15.474Z,29.54
2023-12-11T01:08:12.891Z,29.35
2023-12-11T01:09:10.397Z,29.36
2023-12-11T01:10:08.050Z,28.80
2023-12-11T01:11:06.541Z,29.09
2023-12-11T01:12:04.331Z,28.98
2023-12-11T01:13:01.753Z,29.05
2023-12-11T01:13:59.201Z,29.07
2023-12-11T01:14:56.700Z,28.97
2023-12-11T01:15:54.122Z,28.58
2023-12-11T01:16:51.553Z,29.20
2023-12-11T01:17:49.386Z,29.51
2023-12-11T01:18:47.093Z,27.60
2023-12-11T01:19:44.637Z,26.48
2023-12-11T01:20:42.071Z,27.53
2023-12-11T01:21:39.455Z,26.33
2023-12-11T01:22:36.906Z,26.73
2023-12-11T01:23:34.306Z,25.85
2023-12-11T01:24:31.773Z,25.46
2023-12-11T01:25:29.220Z,24.92
2023-12-11T01:26:26.691Z,25.68
2023-12-11T01:27:24.043Z,25.08
2023-12-11T01:28:21.449Z,25.63
2023-12-11T01:29:18.841Z,25.10
2023-12-11T01:30:16.235Z,25.53
2023-12-11T01:31:13.682Z,25.85
2023-12-11T01:32:11.121Z,24.63
2023-12-11T01:33:08.699Z,22.68
2023-12-11T01:34:06.522Z,21.62
2023-12-11T01:35:04.284Z,22.93
2023-12-11T01:36:01.789Z,22.79
2023-12-11T01:37:00.325Z,23.12
2023-12-11T01:37:57.707Z,21.03
2023-12-11T01:38:55.191Z,22.41
2023-12-11T01:39:52.650Z,21.62
2023-12-11T01:40:50.173Z,16.90
2023-12-11T01:41:47.591Z,18.41
2023-12-11T01:42:45.046Z,19.35
2023-12-11T01:43:42.582Z,19.15
2023-12-11T01:44:40.082Z,18.43
2023-12-11T01:45:37.593Z,18.01
2023-12-11T01:46:35.311Z,18.52
2023-12-11T01:47:33.929Z,18.64
2023-12-11T01:48:32.118Z,15.66
2023-12-11T01:49:29.692Z,15.41
2023-12-11T01:50:27.146Z,15.59
2023-12-11T01:51:25.070Z,14.41
2023-12-11T01:52:22.691Z,15.44
2023-12-11T01:53:20.203Z,15.70
2023-12-11T01:54:20.601Z,14.48
2023-12-11T01:55:18.133Z,14.00
2023-12-11T01:56:17.769Z,13.80
2023-12-11T01:57:15.251Z,14.46
2023-12-11T01:58:13.810Z,14.52
2023-12-11T01:59:12.472Z,14.74
2023-12-11T02:00:10.267Z,15.27
2023-12-11T02:01:09.795Z,13.94
2023-12-11T02:02:07.306Z,13.32
2023-12-11T02:03:05.686Z,14.01
2023-12-11T02:04:03.112Z,14.42
2023-12-11T02:05:00.812Z,13.35
2023-12-11T02:05:58.364Z,13.11
2023-12-11T02:06:55.895Z,13.75
2023-12-11T02:07:53.364Z,13.53
2023-12-11T02:08:50.822Z,13.91
2023-12-11T02:09:48.358Z,14.26
2023-12-11T02:10:45.977Z,13.66
2023-12-11T02:11:47.102Z,14.84
2023-12-11T02:12:44.905Z,14.92
2023-12-11T02:13:42.376Z,13.86
2023-12-11T02:14:40.312Z,12.12
2023-12-11T02:15:38.909Z,12.78
2023-12-11T02:16:36.590Z,12.68
2023-12-11T02:17:34.185Z,11.86
2023-12-11T02:18:31.773Z,12.28
2023-12-11T02:19:29.248Z,12.06
2023-12-11T02:20:26.625Z,12.28
2023-12-11T02:21:24.060Z,12.02
2023-12-11T02:22:22.214Z,11.66
2023-12-11T02:23:30.196Z,11.98
2023-12-11T02:24:33.177Z,11.57
2023-12-11T02:25:34.267Z,12.16
2023-12-11T02:26:31.652Z,12.42
2023-12-11T02:27:30.040Z,12.68
2023-12-11T02:28:27.707Z,12.24
2023-12-11T02:29:25.465Z,12.99
2023-12-11T02:30:22.967Z,12.48
2023-12-11T02:31:20.484Z,12.63
2023-12-11T02:32:17.964Z,13.24
2023-12-11T02:33:15.433Z,13.19
2023-12-11T02:34:12.915Z,13.14
2023-12-11T02:35:10.334Z,13.81
2023-12-11T02:36:07.926Z,14.06
2023-12-11T02:37:05.358Z,13.95
2023-12-11T02:38:02.786Z,14.00
2023-12-11T02:39:00.339Z,14.38
2023-12-11T02:39:57.801Z,14.52
2023-12-11T02:40:55.388Z,14.03
2023-12-11T02:41:52.872Z,14.34
2023-12-11T02:42:50.345Z,13.99
2023-12-11T02:43:48.043Z,13.75
2023-12-11T02:44:45.462Z,13.96
2023-12-11T02:45:43.119Z,13.48
2023-12-11T02:46:40.621Z,13.27
2023-12-11T02:47:38.149Z,14.09
2023-12-11T02:48:35.787Z,13.69
2023-12-11T02:49:33.394Z,13.35
2023-12-11T02:50:31.211Z,13.32
2023-12-11T02:51:28.624Z,13.53
2023-12-11T02:52:26.074Z,13.88
2023-12-11T02:53:23.485Z,14.13
2023-12-11T02:54:20.905Z,14.13
2023-12-11T02:55:18.333Z,14.50
2023-12-11T02:56:15.764Z,14.45
2023-12-11T02:57:13.123Z,15.80
2023-12-11T02:58:10.704Z,15.38
2023-12-11T02:59:08.173Z,15.05
2023-12-11T03:00:06.254Z,15.79
2023-12-11T03:01:03.921Z,15.06
2023-12-11T03:02:01.473Z,15.79
2023-12-11T03:02:59.421Z,16.10
2023-12-11T03:03:56.891Z,15.25
2023-12-11T03:04:54.326Z,16.55
2023-12-11T03:05:52.006Z,15.41
2023-12-11T03:06:49.560Z,16.00
2023-12-11T03:07:50.205Z,15.74
2023-12-11T03:08:47.604Z,15.11
2023-12-11T03:09:45.088Z,16.10
2023-12-11T03:10:42.513Z,16.06
2023-12-11T03:11:40.000Z,16.67
2023-12-11T03:12:37.444Z,16.47
2023-12-11T03:13:34.834Z,16.68
2023-12-11T03:14:32.216Z,16.47
2023-12-11T03:15:31.301Z,17.20
2023-12-11T03:16:28.745Z,17.25
2023-12-11T03:17:26.297Z,17.01
2023-12-11T03:18:23.878Z,17.09
2023-12-11T03:19:21.379Z,16.67
2023-12-11T03:20:19.211Z,16.30
2023-12-11T03:21:16.667Z,17.03
2023-12-11T03:22:14.232Z,16.10
2023-12-11T03:23:12.055Z,16.08
2023-12-11T03:24:09.771Z,16.33
2023-12-11T03:25:07.357Z,16.06
2023-12-11T03:26:04.969Z,16.71
2023-12-11T03:27:02.384Z,16.87
2023-12-11T03:27:59.941Z,16.85
2023-12-11T03:28:57.403Z,16.73
2023-12-11T03:29:54.770Z,16.89
2023-12-11T03:30:52.235Z,16.42
2023-12-11T03:31:49.650Z,16.50
2023-12-11T03:32:47.123Z,16.31
2023-12-11T03:33:44.633Z,16.76
2023-12-11T03:34:42.535Z,17.31
2023-12-11T03:35:39.999Z,16.46
2023-12-11T03:36:37.472Z,16.85
2023-12-11T03:37:34.837Z,17.10
2023-12-11T03:38:32.257Z,16.49
2023-12-11T03:39:29.668Z,16.44
2023-12-11T03:40:27.123Z,16.84
2023-12-11T03:41:24.517Z,15.97
2023-12-11T03:42:22.635Z,17.03
2023-12-11T03:43:20.084Z,17.06
2023-12-11T03:44:17.565Z,16.27
2023-12-11T03:45:14.959Z,16.68
2023-12-11T03:46:12.402Z,16.74
2023-12-11T03:47:09.913Z,15.98
2023-12-11T03:48:07.383Z,16.87
2023-12-11T03:49:05.054Z,17.25
2023-12-11T03:50:02.521Z,17.16
2023-12-11T03:50:59.959Z,16.59
2023-12-11T03:51:57.402Z,17.09
2023-12-11T03:52:54.854Z,17.53
2023-12-11T03:53:52.242Z,16.73
2023-12-11T03:54:49.691Z,16.89
2023-12-11T03:55:47.059Z,17.00
2023-12-11T03:56:44.458Z,16.56
2023-12-11T03:57:42.075Z,16.47
2023-12-11T03:58:39.578Z,17.06
2023-12-11T03:59:36.983Z,16.44
2023-12-11T04:00:34.742Z,16.39
2023-12-11T04:01:32.348Z,16.13
2023-12-11T04:02:29.921Z,16.89
2023-12-11T04:03:27.470Z,16.62
2023-12-11T04:04:25.041Z,16.73
2023-12-11T04:05:22.658Z,16.69
2023-12-11T04:06:20.075Z,15.77
2023-12-11T04:07:17.776Z,16.14
2023-12-11T04:08:15.254Z,17.68
2023-12-11T04:09:12.844Z,16.93
2023-12-11T04:10:10.680Z,17.54
2023-12-11T04:11:08.982Z,17.44
2023-12-11T04:12:06.527Z,17.39
2023-12-11T04:13:04.106Z,17.71
2023-12-11T04:14:01.555Z,17.74
2023-12-11T04:14:59.024Z,17.99
2023-12-11T04:15:56.484Z,17.67
2023-12-11T04:16:53.864Z,17.41
2023-12-11T04:17:51.244Z,17.56
2023-12-11T04:18:48.732Z,16.94
2023-12-11T04:19:46.299Z,17.46
2023-12-11T04:20:43.822Z,16.50
2023-12-11T04:21:41.295Z,16.53
2023-12-11T04:22:38.743Z,16.15
2023-12-11T04:23:36.206Z,17.05
2023-12-11T04:24:33.640Z,16.38
2023-12-11T04:25:31.099Z,17.14
2023-12-11T04:26:28.507Z,17.16
2023-12-11T04:27:26.383Z,16.29
2023-12-11T04:28:24.103Z,16.45
2023-12-11T04:29:21.515Z,16.28
2023-12-11T04:30:19.006Z,15.89
2023-12-11T04:31:16.496Z,16.46
2023-12-11T04:32:13.985Z,16.89
2023-12-11T04:33:11.502Z,16.59
2023-12-11T04:34:09.138Z,15.78
2023-12-11T04:35:06.827Z,15.98
2023-12-11T04:36:08.409Z,15.71
2023-12-11T04:37:05.945Z,15.68
2023-12-11T04:38:03.364Z,16.07
2023-12-11T04:39:00.994Z,16.11
2023-12-11T04:39:58.483Z,16.05
2023-12-11T04:40:55.900Z,16.34
2023-12-11T04:41:53.299Z,15.63
2023-12-11T04:42:50.763Z,16.56
2023-12-11T04:43:48.162Z,17.69
2023-12-11T04:44:45.529Z,16.53
2023-12-11T04:45:42.983Z,15.78
2023-12-11T04:46:40.441Z,16.65
2023-12-11T04:47:38.175Z,16.13
2023-12-11T04:48:35.748Z,15.78
2023-12-11T04:49:33.544Z,16.29
2023-12-11T04:50:31.004Z,16.33
2023-12-11T04:51:28.378Z,16.86
2023-12-11T04:52:25.753Z,15.57
2023-12-11T04:53:23.169Z,16.49
2023-12-11T04:54:21.045Z,16.82
2023-12-11T04:55:18.550Z,17.52
2023-12-11T04:56:17.113Z,17.28
2023-12-11T04:57:14.806Z,17.45
2023-12-11T04:58:12.288Z,16.58
2023-12-11T04:59:09.737Z,16.66
2023-12-11T05:00:07.440Z,16.19
2023-12-11T05:01:05.176Z,15.75
2023-12-11T05:02:02.714Z,17.10
2023-12-11T05:03:00.268Z,16.86
2023-12-11T05:03:57.746Z,17.38
2023-12-11T05:04:55.186Z,17.34
2023-12-11T05:05:52.603Z,16.16
2023-12-11T05:06:50.051Z,16.79
2023-12-11T05:07:47.411Z,16.65
2023-12-11T05:08:44.764Z,15.44
2023-12-11T05:09:42.271Z,16.39
2023-12-11T05:10:39.747Z,16.41
2023-12-11T05:11:37.378Z,16.28
2023-12-11T05:12:34.835Z,16.13
2023-12-11T05:13:32.346Z,17.31
2023-12-11T05:14:29.764Z,16.44
2023-12-11T05:15:27.176Z,16.36
2023-12-11T05:16:27.675Z,16.47
2023-12-11T05:17:25.418Z,16.78
2023-12-11T05:18:22.904Z,16.53
2023-12-11T05:19:20.437Z,15.99
2023-12-11T05:20:19.671Z,15.65
2023-12-11T05:21:17.187Z,17.16
2023-12-11T05:22:14.761Z,16.24
2023-12-11T05:23:12.245Z,16.08
2023-12-11T05:24:09.650Z,16.02
2023-12-11T05:25:07.568Z,15.85
2023-12-11T05:26:05.649Z,16.24
2023-12-11T05:27:03.196Z,15.05
2023-12-11T05:28:00.671Z,15.99
2023-12-11T05:28:58.086Z,16.69
2023-12-11T05:29:55.479Z,15.78
2023-12-11T05:30:52.917Z,15.97
2023-12-11T05:31:50.444Z,16.04
2023-12-11T05:32:47.921Z,16.48
2023-12-11T05:33:45.632Z,16.54
2023-12-11T05:34:43.266Z,16.16
2023-12-11T05:35:40.777Z,16.72
2023-12-11T05:36:38.281Z,16.61
2023-12-11T05:37:35.796Z,16.91
2023-12-11T05:38:33.205Z,16.64
2023-12-11T05:39:30.648Z,17.14
2023-12-11T05:40:28.102Z,17.58
2023-12-11T05:41:25.568Z,16.68
2023-12-11T05:42:22.991Z,15.79
2023-12-11T05:43:20.620Z,15.78
2023-12-11T05:44:18.165Z,16.05
2023-12-11T05:45:15.590Z,16.26
2023-12-11T05:46:13.171Z,15.55
2023-12-11T05:47:10.659Z,17.34
2023-12-11T05:48:08.906Z,16.69
2023-12-11T05:49:06.629Z,17.15
2023-12-11T05:50:04.297Z,16.91
2023-12-11T05:51:01.728Z,16.40
2023-12-11T05:51:59.187Z,16.55
2023-12-11T05:52:56.593Z,15.30
2023-12-11T05:53:53.990Z,15.22
2023-12-11T05:54:51.463Z,14.87
2023-12-11T05:55:48.914Z,14.90
2023-12-11T05:56:47.459Z,14.98
2023-12-11T05:57:47.092Z,14.66
2023-12-11T05:58:46.037Z,14.25
2023-12-11T05:59:43.601Z,15.00
2023-12-11T06:00:41.460Z,14.94
2023-12-11T06:01:39.090Z,15.11
2023-12-11T06:02:36.677Z,15.02
2023-12-11T06:03:34.135Z,15.06
2023-12-11T06:04:31.546Z,14.94
2023-12-11T06:05:28.968Z,14.10
2023-12-11T06:06:27.474Z,15.25
2023-12-11T06:07:26.761Z,14.26
2023-12-11T06:08:27.226Z,14.98
2023-12-11T06:09:24.651Z,14.60
2023-12-11T06:10:22.200Z,15.36
2023-12-11T06:11:19.655Z,15.90
2023-12-11T06:12:17.252Z,15.42
2023-12-11T06:13:14.738Z,15.32
2023-12-11T06:14:12.164Z,14.50
2023-12-11T06:15:09.823Z,15.33
2023-12-11T06:16:07.424Z,15.28
2023-12-11T06:17:04.979Z,14.85
2023-12-11T06:18:02.546Z,14.33
2023-12-11T06:19:00.137Z,14.35
2023-12-11T06:19:57.800Z,14.03
2023-12-11T06:20:55.401Z,13.79
2023-12-11T06:21:53.201Z,14.28
2023-12-11T06:22:50.560Z,13.40
2023-12-11T06:23:48.572Z,13.06
2023-12-11T06:24:45.946Z,13.27
2023-12-11T06:25:43.405Z,12.49
2023-12-11T06:26:43.679Z,12.71
2023-12-11T06:27:41.269Z,12.38
2023-12-11T06:28:40.712Z,12.58
2023-12-11T06:29:39.534Z,12.46
2023-12-11T06:30:37.105Z,13.18
2023-12-11T06:31:34.565Z,12.58
2023-12-11T06:32:31.995Z,12.38
2023-12-11T06:33:29.410Z,12.96
2023-12-11T06:34:26.966Z,12.93
2023-12-11T06:35:24.509Z,12.59
2023-12-11T06:36:22.916Z,12.84
2023-12-11T06:37:20.378Z,12.35
2023-12-11T06:38:18.160Z,11.97
2023-12-11T06:39:16.359Z,12.28
2023-12-11T06:40:13.846Z,12.25
2023-12-11T06:41:11.344Z,11.35
2023-12-11T06:42:09.276Z,11.93
2023-12-11T06:43:06.751Z,11.81
2023-12-11T06:44:04.501Z,11.99
2023-12-11T06:45:01.937Z,11.32
2023-12-11T06:45:59.308Z,11.03
2023-12-11T06:46:56.761Z,11.06
2023-12-11T06:47:54.256Z,11.05
2023-12-11T06:48:51.886Z,11.00
2023-12-11T06:49:49.601Z,10.67
2023-12-11T06:50:47.030Z,10.74
2023-12-11T06:51:44.469Z,10.45
2023-12-11T06:52:42.039Z,10.60
2023-12-11T06:53:39.451Z,11.05
2023-12-11T06:54:36.898Z,10.32
2023-12-11T06:55:34.381Z,10.15
2023-12-11T06:56:34.763Z,9.54
2023-12-11T06:57:32.421Z,10.12
2023-12-11T06:58:30.064Z,9.71
2023-12-11T06:59:27.559Z,9.18
2023-12-11T07:00:26.508Z,9.63
2023-12-11T07:01:27.823Z,10.21
2023-12-11T07:02:25.387Z,9.11
2023-12-11T07:03:22.922Z,9.96
2023-12-11T07:04:20.455Z,9.64
2023-12-11T07:05:18.162Z,9.42
2023-12-11T07:06:16.337Z,9.61
2023-12-11T07:07:13.783Z,10.09
2023-12-11T07:08:11.673Z,9.95
2023-12-11T07:09:10.279Z,9.84
2023-12-11T07:10:07.858Z,9.64
2023-12-11T07:11:05.314Z,9.50
2023-12-11T07:12:02.769Z,9.50
2023-12-11T07:13:00.270Z,9.22
2023-12-11T07:13:57.948Z,8.84
2023-12-11T07:14:55.401Z,8.75
2023-12-11T07:15:52.848Z,9.04
2023-12-11T07:16:50.238Z,9.49
2023-12-11T07:17:47.708Z,8.81
2023-12-11T07:18:45.537Z,9.34
2023-12-11T07:19:43.173Z,9.34
2023-12-11T07:20:42.334Z,9.33
2023-12-11T07:21:42.549Z,9.46
2023-12-11T07:22:39.980Z,9.11
2023-12-11T07:23:38.084Z,8.80
2023-12-11T07:24:36.456Z,8.54
2023-12-11T07:25:34.009Z,9.03
2023-12-11T07:26:31.430Z,11.04
2023-12-11T07:27:29.063Z,11.55
2023-12-11T07:28:26.580Z,10.37
2023-12-11T07:29:24.524Z,11.38
2023-12-11T07:30:21.861Z,10.94
2023-12-11T07:31:19.338Z,10.44
2023-12-11T07:32:16.803Z,9.66
2023-12-11T07:33:14.252Z,9.33
2023-12-11T07:34:11.941Z,9.65
2023-12-11T07:35:12.712Z,9.48
2023-12-11T07:36:11.365Z,9.00
2023-12-11T07:37:08.782Z,8.86
2023-12-11T07:38:07.275Z,8.95
2023-12-11T07:39:04.997Z,9.07
2023-12-11T07:40:02.575Z,9.50
2023-12-11T07:41:00.093Z,9.36
2023-12-11T07:41:57.549Z,9.66
2023-12-11T07:42:54.943Z,8.97
2023-12-11T07:43:52.505Z,8.73
2023-12-11T07:44:49.921Z,9.20
2023-12-11T07:45:50.257Z,8.39
2023-12-11T07:46:47.721Z,9.20
2023-12-11T07:47:45.144Z,8.62
2023-12-11T07:48:43.055Z,8.95
2023-12-11T07:49:41.109Z,9.23
2023-12-11T07:50:38.602Z,9.15
2023-12-11T07:51:36.044Z,8.76
2023-12-11T07:52:33.675Z,8.50
2023-12-11T07:53:31.078Z,8.13
2023-12-11T07:54:28.650Z,7.78
2023-12-11T07:55:26.086Z,8.09
2023-12-11T07:56:24.519Z,11.01
2023-12-11T07:57:21.941Z,9.99
2023-12-11T07:58:19.546Z,8.90
2023-12-11T07:59:17.002Z,9.13
2023-12-11T08:00:14.775Z,9.96
2023-12-11T08:01:14.388Z,8.94
2023-12-11T08:02:12.064Z,7.64
2023-12-11T08:03:09.468Z,6.93
2023-12-11T08:04:07.120Z,6.95
2023-12-11T08:05:05.057Z,7.27
2023-12-11T08:06:02.608Z,6.95
2023-12-11T08:07:00.041Z,6.95
2023-12-11T08:07:57.440Z,6.88
2023-12-11T08:08:54.929Z,6.57
2023-12-11T08:09:52.602Z,7.10
2023-12-11T08:10:50.096Z,7.28
2023-12-11T08:11:47.549Z,7.17
2023-12-11T08:12:49.457Z,6.80
2023-12-11T08:13:46.900Z,6.79
2023-12-11T08:14:44.384Z,7.41
2023-12-11T08:15:41.807Z,7.38
2023-12-11T08:16:39.207Z,7.43
2023-12-11T08:17:36.595Z,7.24
2023-12-11T08:18:34.081Z,6.77
2023-12-11T08:19:33.679Z,7.39
2023-12-11T08:20:31.751Z,7.66
2023-12-11T08:21:29.135Z,7.19
2023-12-11T08:22:26.664Z,7.10
2023-12-11T08:23:24.024Z,7.42
2023-12-11T08:24:21.428Z,7.06
2023-12-11T08:25:19.445Z,7.08
2023-12-11T08:26:20.682Z,6.82
2023-12-11T08:27:18.150Z,7.15
2023-12-11T08:28:15.639Z,7.23
2023-12-11T08:29:13.130Z,6.69
2023-12-11T08:30:11.068Z,7.21
2023-12-11T08:31:08.693Z,7.33
2023-12-11T08:32:09.224Z,6.66
2023-12-11T08:33:08.150Z,7.30
2023-12-11T08:34:06.693Z,7.06
2023-12-11T08:35:05.283Z,7.10
2023-12-11T08:36:02.892Z,7.23
2023-12-11T08:37:00.336Z,6.91
2023-12-11T08:37:57.725Z,6.86
2023-12-11T08:38:55.090Z,6.76
2023-12-11T08:39:52.563Z,6.73
2023-12-11T08:40:50.671Z,7.12
2023-12-11T08:41:49.280Z,7.47
2023-12-11T08:42:46.856Z,7.14
2023-12-11T08:43:44.522Z,6.75
2023-12-11T08:44:41.949Z,6.99
2023-12-11T08:45:39.838Z,7.66
2023-12-11T08:46:37.403Z,7.22
2023-12-11T08:47:38.896Z,7.40
2023-12-11T08:48:37.683Z,7.36
2023-12-11T08:49:35.440Z,7.40
2023-12-11T08:50:33.231Z,7.57
2023-12-11T08:51:30.665Z,7.38
2023-12-11T08:52:28.034Z,7.31
2023-12-11T08:53:25.711Z,7.17
2023-12-11T08:54:23.112Z,7.19
2023-12-11T08:55:20.695Z,7.16
2023-12-11T08:56:20.285Z,7.53
2023-12-11T08:57:18.139Z,7.31
2023-12-11T08:58:15.987Z,7.18
2023-12-11T08:59:13.632Z,7.47
2023-12-11T09:00:11.551Z,7.20
2023-12-11T09:01:09.728Z,7.12
2023-12-11T09:02:07.817Z,7.08
2023-12-11T09:03:05.231Z,7.56
2023-12-11T09:04:04.509Z,7.58
2023-12-11T09:05:02.179Z,7.78
2023-12-11T09:05:59.726Z,7.64
2023-12-11T09:06:57.214Z,7.95
2023-12-11T09:07:56.352Z,7.81
2023-12-11T09:08:53.813Z,7.52
2023-12-11T09:09:51.260Z,8.02
2023-12-11T09:10:48.893Z,7.71
2023-12-11T09:11:46.379Z,7.59
2023-12-11T09:12:43.904Z,7.69
2023-12-11T09:13:42.338Z,7.72
2023-12-11T09:14:39.821Z,7.32
2023-12-11T09:15:37.847Z,7.78
2023-12-11T09:16:35.349Z,8.02
2023-12-11T09:17:33.226Z,8.25
2023-12-11T09:18:30.976Z,8.15
2023-12-11T09:19:40.162Z,7.66
2023-12-11T09:20:47.318Z,7.95
2023-12-11T09:21:44.817Z,8.02
2023-12-11T09:22:42.861Z,7.57
2023-12-11T09:23:40.330Z,8.04
2023-12-11T09:24:38.238Z,7.82
2023-12-11T09:25:36.963Z,7.63
2023-12-11T09:26:34.484Z,8.55
2023-12-11T09:27:32.175Z,8.62
2023-12-11T09:28:34.392Z,8.52
2023-12-11T09:29:35.880Z,8.61
2023-12-11T09:30:33.327Z,8.82
2023-12-11T09:31:30.737Z,9.32
2023-12-11T09:32:29.002Z,9.34
2023-12-11T09:33:26.569Z,10.84
2023-12-11T09:34:24.642Z,11.24
2023-12-11T09:35:22.380Z,10.45
2023-12-11T09:36:20.636Z,10.02
2023-12-11T09:37:20.798Z,8.50
2023-12-11T09:38:18.288Z,9.16
2023-12-11T09:39:15.771Z,8.36
2023-12-11T09:40:13.695Z,8.42
2023-12-11T09:41:11.163Z,8.31
2023-12-11T09:42:09.062Z,7.40
2023-12-11T09:43:07.204Z,6.95
2023-12-11T09:44:04.845Z,6.61
2023-12-11T09:45:02.883Z,6.54
2023-12-11T09:46:01.124Z,6.56
2023-12-11T09:47:14.787Z,6.29
2023-12-11T09:48:15.081Z,6.88
2023-12-11T09:49:13.026Z,6.49
2023-12-11T09:50:10.982Z,6.34
2023-12-11T09:51:08.513Z,6.03
2023-12-11T09:52:06.034Z,6.33
2023-12-11T09:53:04.616Z,6.41
2023-12-11T09:54:02.272Z,6.36
2023-12-11T09:54:59.679Z,6.62
2023-12-11T09:55:57.350Z,6.02
2023-12-11T09:56:55.276Z,6.11
2023-12-11T09:57:52.985Z,6.08
2023-12-11T09:58:50.572Z,6.32
2023-12-11T09:59:51.523Z,5.84
2023-12-11T10:00:49.823Z,5.66
2023-12-11T10:01:50.863Z,5.75
2023-12-11T10:02:51.199Z,6.50
2023-12-11T10:03:48.667Z,6.23
2023-12-11T10:05:03.326Z,5.93
2023-12-11T10:06:00.901Z,6.30
2023-12-11T10:06:58.354Z,6.03
2023-12-11T10:07:55.746Z,5.38
2023-12-11T10:08:54.586Z,5.67
2023-12-11T10:09:52.089Z,5.35
2023-12-11T10:10:49.535Z,5.87
2023-12-11T10:11:58.208Z,6.20
2023-12-11T10:12:56.762Z,5.35
2023-12-11T10:13:54.439Z,5.41
2023-12-11T10:15:02.350Z,5.41
2023-12-11T10:16:02.063Z,5.19
2023-12-11T10:17:15.205Z,5.22
2023-12-11T10:18:14.038Z,5.35
2023-12-11T10:19:11.763Z,5.32
2023-12-11T10:20:16.970Z,5.38
2023-12-11T10:21:14.951Z,5.49
2023-12-11T10:22:25.876Z,5.18
2023-12-11T10:23:24.101Z,5.39
2023-12-11T10:24:21.538Z,5.25
2023-12-11T10:25:28.972Z,5.57
2023-12-11T10:26:26.412Z,5.10
2023-12-11T10:27:27.676Z,5.16
2023-12-11T10:28:25.435Z,5.17
2023-12-11T10:29:24.598Z,5.00
2023-12-11T10:30:21.983Z,4.68
2023-12-11T10:31:19.368Z,4.98
2023-12-11T10:32:16.943Z,4.72
2023-12-11T10:33:14.589Z,4.65
2023-12-11T10:34:12.178Z,4.48
2023-12-11T10:35:23.595Z,4.49
2023-12-11T10:36:21.505Z,4.12
2023-12-11T10:37:32.837Z,4.30
2023-12-11T10:38:51.354Z,4.45
2023-12-11T10:40:25.997Z,4.28
2023-12-11T10:41:29.277Z,4.22
2023-12-11T10:42:26.890Z,4.16
2023-12-11T10:43:24.565Z,4.15
2023-12-11T10:44:39.788Z,4.14
2023-12-11T10:45:43.947Z,4.52
2023-12-11T10:46:41.477Z,4.18
2023-12-11T10:47:42.272Z,4.32
2023-12-11T10:48:39.872Z,4.57
2023-12-11T10:49:38.046Z,3.81
2023-12-11T10:50:35.534Z,3.71
2023-12-11T10:51:35.499Z,3.91
2023-12-11T10:52:34.250Z,3.78
2023-12-11T10:53:31.786Z,4.01
2023-12-11T10:54:29.521Z,4.12
2023-12-11T10:55:27.072Z,3.95
2023-12-11T10:56:25.253Z,4.07
2023-12-11T10:57:25.572Z,4.01
2023-12-11T10:58:23.240Z,4.04
2023-12-11T10:59:21.273Z,4.02
2023-12-11T11:00:21.649Z,4.14
2023-12-11T11:01:19.124Z,4.15
2023-12-11T11:02:18.999Z,4.25
2023-12-11T11:03:17.782Z,4.19
2023-12-11T11:04:17.696Z,3.81
2023-12-11T11:05:15.746Z,3.56
2023-12-11T11:06:13.881Z,3.50
2023-12-11T11:07:14.810Z,3.17
2023-12-11T11:08:14.946Z,3.42
2023-12-11T11:09:15.941Z,3.90
2023-12-11T11:10:19.165Z,3.89
2023-12-11T11:11:28.428Z,3.89
2023-12-11T11:12:45.046Z,4.10
2023-12-11T11:14:06.435Z,3.65
2023-12-11T11:15:04.039Z,3.21
2023-12-11T11:16:01.541Z,3.58
2023-12-11T11:17:00.353Z,3.57
2023-12-11T11:18:06.239Z,3.65
2023-12-11T11:19:06.035Z,3.34
2023-12-11T11:20:19.036Z,3.42
2023-12-11T11:21:17.768Z,3.54
2023-12-11T11:22:27.464Z,3.78
2023-12-11T11:23:43.232Z,3.58
2023-12-11T11:24:40.849Z,3.44
2023-12-11T11:25:39.503Z,3.12
2023-12-11T11:26:37.063Z,2.92
2023-12-11T11:27:43.731Z,3.51
2023-12-11T11:28:48.063Z,3.46
2023-12-11T11:29:46.003Z,3.35
2023-12-11T11:30:43.970Z,3.25
2023-12-11T11:31:48.537Z,3.40
2023-12-11T11:32:53.693Z,3.51
2023-12-11T11:33:53.325Z,3.61
2023-12-11T11:34:50.925Z,3.29
2023-12-11T11:35:48.290Z,3.47
2023-12-11T11:36:49.996Z,3.14
2023-12-11T11:37:51.545Z,3.46
2023-12-11T11:38:53.356Z,3.38
2023-12-11T11:39:53.590Z,3.33
2023-12-11T11:40:52.675Z,3.32
2023-12-11T11:41:50.300Z,3.73
2023-12-11T11:42:47.698Z,3.19
2023-12-11T11:43:55.459Z,3.03
2023-12-11T11:44:59.080Z,3.45
2023-12-11T11:45:59.326Z,3.68
2023-12-11T11:47:01.342Z,3.22
2023-12-11T11:47:58.854Z,3.46
2023-12-11T11:48:56.335Z,3.35
2023-12-11T11:49:54.728Z,3.59
2023-12-11T11:50:54.003Z,3.69
2023-12-11T11:51:51.429Z,3.44
2023-12-11T11:52:55.364Z,3.81
2023-12-11T11:54:00.258Z,3.65
2023-12-11T11:55:01.947Z,3.24
2023-12-11T11:56:02.365Z,3.39
2023-12-11T11:56:59.879Z,3.66
2023-12-11T11:57:57.709Z,3.42
2023-12-11T11:59:03.978Z,3.49
2023-12-11T12:00:01.469Z,3.68
2023-12-11T12:01:05.623Z,3.24
2023-12-11T12:02:04.011Z,3.39
2023-12-11T12:03:05.526Z,3.68
2023-12-11T12:04:04.522Z,3.17
2023-12-11T12:05:12.327Z,3.42
2023-12-11T12:06:11.103Z,3.72
2023-12-11T12:07:08.627Z,3.57
2023-12-11T12:08:08.399Z,3.28
2023-12-11T12:09:05.872Z,3.79
2023-12-11T12:10:03.365Z,3.84
2023-12-11T12:11:01.967Z,3.65
2023-12-11T12:11:59.821Z,3.92
2023-12-11T12:12:58.172Z,3.70
2023-12-11T12:13:56.868Z,3.78
2023-12-11T12:15:01.669Z,3.66
2023-12-11T12:15:59.061Z,3.70
2023-12-11T12:16:56.833Z,3.48
2023-12-11T12:17:55.242Z,3.46
2023-12-11T12:18:52.875Z,3.70
2023-12-11T12:19:50.409Z,3.47
2023-12-11T12:21:00.922Z,3.28
2023-12-11T12:22:00.140Z,3.35
2023-12-11T12:22:57.646Z,3.53
2023-12-11T12:24:07.548Z,3.70
2023-12-11T12:25:13.471Z,3.32
2023-12-11T12:26:11.190Z,3.31
2023-12-11T12:27:11.746Z,3.57
2023-12-11T12:28:12.751Z,3.45
2023-12-11T12:29:11.131Z,3.75
2023-12-11T12:30:08.882Z,3.73
2023-12-11T12:31:06.456Z,3.78
2023-12-11T12:32:05.523Z,3.86
2023-12-11T12:33:06.062Z,3.78
2023-12-11T12:34:04.169Z,3.90
2023-12-11T12:35:04.289Z,3.74
2023-12-11T12:36:02.091Z,3.78
2023-12-11T12:37:02.853Z,3.76
2023-12-11T12:38:01.558Z,3.94
2023-12-11T12:38:59.560Z,4.02
2023-12-11T12:39:58.291Z,3.66
2023-12-11T12:40:56.240Z,3.60
2023-12-11T12:41:55.350Z,3.63
2023-12-11T12:42:53.420Z,3.84
2023-12-11T12:43:51.130Z,4.06
2023-12-11T12:44:48.758Z,4.00